sensor_id;sensor_type;location;lat;lon;timestamp;temperature;humidity
44117;DHT22;29781;49.480;8.512;2022-09-25T00:01:23;13.10;99.90
44117;DHT22;29781;49.480;8.512;2022-09-25T00:03:49;13.10;99.90
44117;DHT22;29781;49.480;8.512;2022-09-25T00:06:18;13.10;99.90
44117;DHT22;29781;49.480;8.512;2022-09-25T00:08:45;13.10;99.90
44117;DHT22;29781;49.480;8.512;2022-09-25T00:11:19;13.10;99.90
44117;DHT22;29781;49.480;8.512;2022-09-25T00:13:45;13.10;99.90
44117;DHT22;29781;49.480;8.512;2022-09-25T00:16:14;13.10;99.90
44117;DHT22;29781;49.480;8.512;2022-09-25T00:18:41;13.10;99.90
44117;DHT22;29781;49.480;8.512;2022-09-25T00:21:26;13.00;99.90
44117;DHT22;29781;49.480;8.512;2022-09-25T00:24:06;12.90;99.90
44117;DHT22;29781;49.480;8.512;2022-09-25T00:26:34;12.90;99.90
44117;DHT22;29781;49.480;8.512;2022-09-25T00:29:01;12.90;99.90
44117;DHT22;29781;49.480;8.512;2022-09-25T00:31:27;12.80;99.90
44117;DHT22;29781;49.480;8.512;2022-09-25T00:33:56;12.80;99.90
44117;DHT22;29781;49.480;8.512;2022-09-25T00:36:22;12.90;99.90
44117;DHT22;29781;49.480;8.512;2022-09-25T00:38:48;13.00;99.90
44117;DHT22;29781;49.480;8.512;2022-09-25T00:41:17;13.10;99.90
44117;DHT22;29781;49.480;8.512;2022-09-25T00:43:46;13.30;99.90
44117;DHT22;29781;49.480;8.512;2022-09-25T00:48:49;13.30;99.90
44117;DHT22;29781;49.480;8.512;2022-09-25T00:51:20;13.40;99.90
44117;DHT22;29781;49.480;8.512;2022-09-25T00:53:46;13.50;99.90
44117;DHT22;29781;49.480;8.512;2022-09-25T00:56:13;13.60;99.90
44117;DHT22;29781;49.480;8.512;2022-09-25T00:58:40;13.70;99.90
44117;DHT22;29781;49.480;8.512;2022-09-25T01:01:06;13.70;99.90
44117;DHT22;29781;49.480;8.512;2022-09-25T01:03:33;13.70;99.90
44117;DHT22;29781;49.480;8.512;2022-09-25T01:06:00;13.60;99.90
44117;DHT22;29781;49.480;8.512;2022-09-25T01:08:27;13.50;99.90
44117;DHT22;29781;49.480;8.512;2022-09-25T01:10:55;13.40;99.90
44117;DHT22;29781;49.480;8.512;2022-09-25T01:13:21;13.30;99.90
44117;DHT22;29781;49.480;8.512;2022-09-25T01:15:55;13.20;99.90
44117;DHT22;29781;49.480;8.512;2022-09-25T01:18:47;13.20;99.90
44117;DHT22;29781;49.480;8.512;2022-09-25T01:29:48;13.20;99.90
44117;DHT22;29781;49.480;8.512;2022-09-25T01:40:44;12.90;99.90
44117;DHT22;29781;49.480;8.512;2022-09-25T01:46:28;13.10;99.90
44117;DHT22;29781;49.480;8.512;2022-09-25T01:51:55;13.10;99.90
44117;DHT22;29781;49.480;8.512;2022-09-25T01:54:28;13.10;99.90
44117;DHT22;29781;49.480;8.512;2022-09-25T01:59:34;13.10;99.90
44117;DHT22;29781;49.480;8.512;2022-09-25T02:02:03;13.20;99.90
44117;DHT22;29781;49.480;8.512;2022-09-25T02:04:35;13.20;99.90
44117;DHT22;29781;49.480;8.512;2022-09-25T02:07:04;13.20;99.90
44117;DHT22;29781;49.480;8.512;2022-09-25T02:09:45;13.20;99.90
44117;DHT22;29781;49.480;8.512;2022-09-25T02:12:13;13.00;99.90
44117;DHT22;29781;49.480;8.512;2022-09-25T02:15:28;12.90;99.90
44117;DHT22;29781;49.480;8.512;2022-09-25T02:17:39;12.80;99.90
44117;DHT22;29781;49.480;8.512;2022-09-25T02:20:36;12.80;99.90
44117;DHT22;29781;49.480;8.512;2022-09-25T02:26:11;12.80;99.90
44117;DHT22;29781;49.480;8.512;2022-09-25T02:28:39;12.90;99.90
44117;DHT22;29781;49.480;8.512;2022-09-25T02:31:07;12.90;99.90
44117;DHT22;29781;49.480;8.512;2022-09-25T02:33:34;12.90;99.90
44117;DHT22;29781;49.480;8.512;2022-09-25T02:36:02;12.90;99.90
44117;DHT22;29781;49.480;8.512;2022-09-25T02:38:29;12.90;99.90
44117;DHT22;29781;49.480;8.512;2022-09-25T02:41:18;12.90;99.90
44117;DHT22;29781;49.480;8.512;2022-09-25T02:46:52;13.00;99.90
44117;DHT22;29781;49.480;8.512;2022-09-25T02:49:36;13.00;99.90
44117;DHT22;29781;49.480;8.512;2022-09-25T02:52:11;13.00;99.90
44117;DHT22;29781;49.480;8.512;2022-09-25T02:55:06;13.00;99.90
44117;DHT22;29781;49.480;8.512;2022-09-25T03:00:06;12.90;99.90
44117;DHT22;29781;49.480;8.512;2022-09-25T03:02:33;12.80;99.90
44117;DHT22;29781;49.480;8.512;2022-09-25T03:05:01;12.80;99.90
44117;DHT22;29781;49.480;8.512;2022-09-25T03:07:28;12.80;99.90
44117;DHT22;29781;49.480;8.512;2022-09-25T03:09:55;12.80;99.90
44117;DHT22;29781;49.480;8.512;2022-09-25T03:12:22;12.80;99.90
44117;DHT22;29781;49.480;8.512;2022-09-25T03:14:47;12.80;99.90
44117;DHT22;29781;49.480;8.512;2022-09-25T03:17:13;12.90;99.90
44117;DHT22;29781;49.480;8.512;2022-09-25T03:19:42;12.90;99.90
44117;DHT22;29781;49.480;8.512;2022-09-25T03:22:07;12.90;99.90
44117;DHT22;29781;49.480;8.512;2022-09-25T03:24:33;12.90;99.90
44117;DHT22;29781;49.480;8.512;2022-09-25T03:26:59;12.90;99.90
44117;DHT22;29781;49.480;8.512;2022-09-25T03:29:24;12.80;99.90
44117;DHT22;29781;49.480;8.512;2022-09-25T03:31:50;12.80;99.90
44117;DHT22;29781;49.480;8.512;2022-09-25T03:34:17;12.70;99.90
44117;DHT22;29781;49.480;8.512;2022-09-25T03:36:43;12.80;99.90
44117;DHT22;29781;49.480;8.512;2022-09-25T03:39:12;12.90;99.90
44117;DHT22;29781;49.480;8.512;2022-09-25T03:41:39;12.80;99.90
44117;DHT22;29781;49.480;8.512;2022-09-25T03:44:05;12.90;99.90
44117;DHT22;29781;49.480;8.512;2022-09-25T03:46:33;12.90;99.90
44117;DHT22;29781;49.480;8.512;2022-09-25T03:48:59;12.90;99.90
44117;DHT22;29781;49.480;8.512;2022-09-25T03:51:27;12.90;99.90
44117;DHT22;29781;49.480;8.512;2022-09-25T03:53:53;12.90;99.90
44117;DHT22;29781;49.480;8.512;2022-09-25T03:56:21;13.00;99.90
44117;DHT22;29781;49.480;8.512;2022-09-25T03:58:48;13.10;99.90
44117;DHT22;29781;49.480;8.512;2022-09-25T04:01:15;13.10;99.90
44117;DHT22;29781;49.480;8.512;2022-09-25T04:03:44;13.00;99.90
44117;DHT22;29781;49.480;8.512;2022-09-25T04:06:13;13.00;99.90
44117;DHT22;29781;49.480;8.512;2022-09-25T04:08:39;13.10;99.90
44117;DHT22;29781;49.480;8.512;2022-09-25T04:11:06;13.20;99.90
44117;DHT22;29781;49.480;8.512;2022-09-25T04:13:34;13.20;99.90
44117;DHT22;29781;49.480;8.512;2022-09-25T04:16:01;13.30;99.90
44117;DHT22;29781;49.480;8.512;2022-09-25T04:18:28;13.40;99.90
44117;DHT22;29781;49.480;8.512;2022-09-25T04:21:00;13.40;99.90
44117;DHT22;29781;49.480;8.512;2022-09-25T04:23:26;13.40;99.90
44117;DHT22;29781;49.480;8.512;2022-09-25T04:25:52;13.40;99.90
44117;DHT22;29781;49.480;8.512;2022-09-25T04:28:19;13.50;99.90
44117;DHT22;29781;49.480;8.512;2022-09-25T04:30:46;13.30;99.90
44117;DHT22;29781;49.480;8.512;2022-09-25T04:33:12;13.20;99.90
44117;DHT22;29781;49.480;8.512;2022-09-25T04:35:56;13.00;99.90
44117;DHT22;29781;49.480;8.512;2022-09-25T04:38:22;12.90;99.90
44117;DHT22;29781;49.480;8.512;2022-09-25T04:40:48;12.80;99.90
44117;DHT22;29781;49.480;8.512;2022-09-25T04:43:14;12.80;99.90
44117;DHT22;29781;49.480;8.512;2022-09-25T04:45:39;12.80;99.90
44117;DHT22;29781;49.480;8.512;2022-09-25T04:48:06;12.80;99.90
44117;DHT22;29781;49.480;8.512;2022-09-25T04:50:32;12.90;99.90
44117;DHT22;29781;49.480;8.512;2022-09-25T04:52:58;12.90;99.90
44117;DHT22;29781;49.480;8.512;2022-09-25T04:55:25;12.90;99.90
44117;DHT22;29781;49.480;8.512;2022-09-25T05:00:18;13.10;99.90
44117;DHT22;29781;49.480;8.512;2022-09-25T05:02:47;13.10;99.90
44117;DHT22;29781;49.480;8.512;2022-09-25T05:05:13;13.00;99.90
44117;DHT22;29781;49.480;8.512;2022-09-25T05:07:53;12.90;99.90
44117;DHT22;29781;49.480;8.512;2022-09-25T05:10:20;12.90;99.90
44117;DHT22;29781;49.480;8.512;2022-09-25T05:12:46;12.90;99.90
44117;DHT22;29781;49.480;8.512;2022-09-25T05:15:14;12.90;99.90
44117;DHT22;29781;49.480;8.512;2022-09-25T05:17:40;12.90;99.90
44117;DHT22;29781;49.480;8.512;2022-09-25T05:20:06;13.10;99.90
44117;DHT22;29781;49.480;8.512;2022-09-25T05:22:32;13.20;99.90
44117;DHT22;29781;49.480;8.512;2022-09-25T05:24:57;13.20;99.90
44117;DHT22;29781;49.480;8.512;2022-09-25T05:27:23;13.30;99.90
44117;DHT22;29781;49.480;8.512;2022-09-25T05:29:49;13.20;99.90
44117;DHT22;29781;49.480;8.512;2022-09-25T05:32:15;13.20;99.90
44117;DHT22;29781;49.480;8.512;2022-09-25T05:34:42;13.20;99.90
44117;DHT22;29781;49.480;8.512;2022-09-25T05:37:07;13.30;99.90
44117;DHT22;29781;49.480;8.512;2022-09-25T05:39:33;13.40;99.90
44117;DHT22;29781;49.480;8.512;2022-09-25T05:41:59;13.40;99.90
44117;DHT22;29781;49.480;8.512;2022-09-25T05:44:26;13.20;99.90
44117;DHT22;29781;49.480;8.512;2022-09-25T05:46:53;13.10;99.90
44117;DHT22;29781;49.480;8.512;2022-09-25T05:49:21;13.00;99.90
44117;DHT22;29781;49.480;8.512;2022-09-25T05:51:47;12.90;99.90
44117;DHT22;29781;49.480;8.512;2022-09-25T05:54:13;12.80;99.90
44117;DHT22;29781;49.480;8.512;2022-09-25T05:56:39;12.70;99.90
44117;DHT22;29781;49.480;8.512;2022-09-25T05:59:04;12.70;99.90
44117;DHT22;29781;49.480;8.512;2022-09-25T06:01:30;12.80;99.90
44117;DHT22;29781;49.480;8.512;2022-09-25T06:03:56;12.90;99.90
44117;DHT22;29781;49.480;8.512;2022-09-25T06:06:21;12.90;99.90
44117;DHT22;29781;49.480;8.512;2022-09-25T06:08:47;12.90;99.90
44117;DHT22;29781;49.480;8.512;2022-09-25T06:11:12;12.90;99.90
44117;DHT22;29781;49.480;8.512;2022-09-25T06:13:38;12.90;99.90
44117;DHT22;29781;49.480;8.512;2022-09-25T06:16:12;12.80;99.90
44117;DHT22;29781;49.480;8.512;2022-09-25T06:18:38;12.90;99.90
44117;DHT22;29781;49.480;8.512;2022-09-25T06:21:04;12.90;99.90
44117;DHT22;29781;49.480;8.512;2022-09-25T06:23:30;13.00;99.90
44117;DHT22;29781;49.480;8.512;2022-09-25T06:26:04;13.00;99.90
44117;DHT22;29781;49.480;8.512;2022-09-25T06:28:30;13.00;99.90
44117;DHT22;29781;49.480;8.512;2022-09-25T06:30:59;13.10;99.90
44117;DHT22;29781;49.480;8.512;2022-09-25T06:33:25;13.10;99.90
44117;DHT22;29781;49.480;8.512;2022-09-25T06:35:51;13.20;99.90
44117;DHT22;29781;49.480;8.512;2022-09-25T06:38:17;13.20;99.90
44117;DHT22;29781;49.480;8.512;2022-09-25T06:40:43;13.20;99.90
44117;DHT22;29781;49.480;8.512;2022-09-25T06:43:10;13.30;99.90
44117;DHT22;29781;49.480;8.512;2022-09-25T06:45:36;13.40;99.90
44117;DHT22;29781;49.480;8.512;2022-09-25T06:48:08;13.30;99.90
44117;DHT22;29781;49.480;8.512;2022-09-25T06:50:36;13.30;99.90
44117;DHT22;29781;49.480;8.512;2022-09-25T06:53:02;13.30;99.90
44117;DHT22;29781;49.480;8.512;2022-09-25T06:55:29;13.30;99.90
44117;DHT22;29781;49.480;8.512;2022-09-25T06:57:57;13.40;99.90
44117;DHT22;29781;49.480;8.512;2022-09-25T07:00:23;13.30;99.90
44117;DHT22;29781;49.480;8.512;2022-09-25T07:02:48;13.40;99.90
44117;DHT22;29781;49.480;8.512;2022-09-25T07:05:32;13.40;99.90
44117;DHT22;29781;49.480;8.512;2022-09-25T07:07:59;13.40;99.90
44117;DHT22;29781;49.480;8.512;2022-09-25T07:10:24;13.50;99.90
44117;DHT22;29781;49.480;8.512;2022-09-25T07:12:50;13.40;99.90
44117;DHT22;29781;49.480;8.512;2022-09-25T07:15:16;13.40;99.90
44117;DHT22;29781;49.480;8.512;2022-09-25T07:17:42;13.50;99.90
44117;DHT22;29781;49.480;8.512;2022-09-25T07:20:09;13.50;99.90
44117;DHT22;29781;49.480;8.512;2022-09-25T07:22:37;13.50;99.90
44117;DHT22;29781;49.480;8.512;2022-09-25T07:25:03;13.50;99.90
44117;DHT22;29781;49.480;8.512;2022-09-25T07:27:29;13.50;99.90
44117;DHT22;29781;49.480;8.512;2022-09-25T07:29:55;13.40;99.90
44117;DHT22;29781;49.480;8.512;2022-09-25T07:32:21;13.30;99.90
44117;DHT22;29781;49.480;8.512;2022-09-25T07:34:47;13.10;99.90
44117;DHT22;29781;49.480;8.512;2022-09-25T07:37:16;13.10;99.90
44117;DHT22;29781;49.480;8.512;2022-09-25T07:39:41;13.00;99.90
44117;DHT22;29781;49.480;8.512;2022-09-25T07:42:08;13.00;99.90
44117;DHT22;29781;49.480;8.512;2022-09-25T07:44:34;13.10;99.90
44117;DHT22;29781;49.480;8.512;2022-09-25T07:46:59;13.10;99.90
44117;DHT22;29781;49.480;8.512;2022-09-25T07:49:25;13.20;99.90
44117;DHT22;29781;49.480;8.512;2022-09-25T07:51:53;13.10;99.90
44117;DHT22;29781;49.480;8.512;2022-09-25T07:54:19;13.10;99.90
44117;DHT22;29781;49.480;8.512;2022-09-25T07:56:44;13.20;99.90
44117;DHT22;29781;49.480;8.512;2022-09-25T07:59:10;13.20;99.90
44117;DHT22;29781;49.480;8.512;2022-09-25T08:01:36;13.30;99.90
44117;DHT22;29781;49.480;8.512;2022-09-25T08:04:01;13.20;99.90
44117;DHT22;29781;49.480;8.512;2022-09-25T08:06:27;13.20;99.90
44117;DHT22;29781;49.480;8.512;2022-09-25T08:08:52;13.30;99.90
44117;DHT22;29781;49.480;8.512;2022-09-25T08:11:18;13.40;99.90
44117;DHT22;29781;49.480;8.512;2022-09-25T08:13:45;13.50;99.90
44117;DHT22;29781;49.480;8.512;2022-09-25T08:16:15;13.60;99.90
44117;DHT22;29781;49.480;8.512;2022-09-25T08:18:43;13.60;99.90
44117;DHT22;29781;49.480;8.512;2022-09-25T08:21:11;13.70;99.90
44117;DHT22;29781;49.480;8.512;2022-09-25T08:23:39;13.60;99.90
44117;DHT22;29781;49.480;8.512;2022-09-25T08:26:05;13.60;99.90
44117;DHT22;29781;49.480;8.512;2022-09-25T08:28:31;13.60;99.90
44117;DHT22;29781;49.480;8.512;2022-09-25T08:31:00;13.50;99.90
44117;DHT22;29781;49.480;8.512;2022-09-25T08:33:28;13.30;99.90
44117;DHT22;29781;49.480;8.512;2022-09-25T08:35:57;13.20;99.90
44117;DHT22;29781;49.480;8.512;2022-09-25T08:38:24;13.20;99.90
44117;DHT22;29781;49.480;8.512;2022-09-25T08:40:55;13.20;99.90
44117;DHT22;29781;49.480;8.512;2022-09-25T08:43:25;13.30;99.90
44117;DHT22;29781;49.480;8.512;2022-09-25T08:45:52;13.30;99.90
44117;DHT22;29781;49.480;8.512;2022-09-25T08:48:53;13.40;99.90
44117;DHT22;29781;49.480;8.512;2022-09-25T08:51:35;13.40;99.90
44117;DHT22;29781;49.480;8.512;2022-09-25T08:54:03;13.50;99.90
44117;DHT22;29781;49.480;8.512;2022-09-25T08:56:30;13.70;99.90
44117;DHT22;29781;49.480;8.512;2022-09-25T08:59:18;13.80;99.90
44117;DHT22;29781;49.480;8.512;2022-09-25T09:01:50;13.80;99.90
44117;DHT22;29781;49.480;8.512;2022-09-25T09:04:30;13.90;99.90
44117;DHT22;29781;49.480;8.512;2022-09-25T09:07:04;13.80;99.90
44117;DHT22;29781;49.480;8.512;2022-09-25T09:09:38;13.80;99.90
44117;DHT22;29781;49.480;8.512;2022-09-25T09:12:15;13.90;99.90
44117;DHT22;29781;49.480;8.512;2022-09-25T09:14:48;14.10;99.90
44117;DHT22;29781;49.480;8.512;2022-09-25T09:19:50;14.20;99.90
44117;DHT22;29781;49.480;8.512;2022-09-25T09:22:27;14.30;99.90
44117;DHT22;29781;49.480;8.512;2022-09-25T09:25:26;14.30;99.90
44117;DHT22;29781;49.480;8.512;2022-09-25T09:30:55;14.20;99.90
44117;DHT22;29781;49.480;8.512;2022-09-25T09:36:32;14.30;99.90
44117;DHT22;29781;49.480;8.512;2022-09-25T09:39:20;14.40;99.90
44117;DHT22;29781;49.480;8.512;2022-09-25T09:52:59;14.50;99.90
44117;DHT22;29781;49.480;8.512;2022-09-25T09:55:48;14.60;99.90
44117;DHT22;29781;49.480;8.512;2022-09-25T09:58:30;14.60;99.90
44117;DHT22;29781;49.480;8.512;2022-09-25T10:00:57;14.60;99.90
44117;DHT22;29781;49.480;8.512;2022-09-25T10:03:26;14.60;99.90
44117;DHT22;29781;49.480;8.512;2022-09-25T10:05:58;14.70;99.90
44117;DHT22;29781;49.480;8.512;2022-09-25T10:08:25;14.70;99.90
44117;DHT22;29781;49.480;8.512;2022-09-25T10:10:52;14.70;99.90
44117;DHT22;29781;49.480;8.512;2022-09-25T10:13:22;14.60;99.90
44117;DHT22;29781;49.480;8.512;2022-09-25T10:18:20;14.60;99.90
44117;DHT22;29781;49.480;8.512;2022-09-25T10:20:53;14.50;99.90
44117;DHT22;29781;49.480;8.512;2022-09-25T10:23:51;14.40;99.90
44117;DHT22;29781;49.480;8.512;2022-09-25T10:26:37;14.50;99.90
44117;DHT22;29781;49.480;8.512;2022-09-25T10:29:24;14.50;99.90
44117;DHT22;29781;49.480;8.512;2022-09-25T10:31:57;14.50;99.90
44117;DHT22;29781;49.480;8.512;2022-09-25T10:34:24;14.50;99.90
44117;DHT22;29781;49.480;8.512;2022-09-25T10:36:53;14.60;99.90
44117;DHT22;29781;49.480;8.512;2022-09-25T10:39:39;14.70;99.90
44117;DHT22;29781;49.480;8.512;2022-09-25T10:42:35;14.70;99.90
44117;DHT22;29781;49.480;8.512;2022-09-25T10:45:33;14.80;99.90
44117;DHT22;29781;49.480;8.512;2022-09-25T10:48:00;14.70;99.90
44117;DHT22;29781;49.480;8.512;2022-09-25T10:50:45;14.70;99.90
44117;DHT22;29781;49.480;8.512;2022-09-25T10:53:29;14.90;99.90
44117;DHT22;29781;49.480;8.512;2022-09-25T10:56:05;14.90;99.90
44117;DHT22;29781;49.480;8.512;2022-09-25T11:01:06;15.00;99.90
44117;DHT22;29781;49.480;8.512;2022-09-25T11:03:36;15.00;99.90
44117;DHT22;29781;49.480;8.512;2022-09-25T11:06:07;15.10;99.90
44117;DHT22;29781;49.480;8.512;2022-09-25T11:08:35;15.10;99.90
44117;DHT22;29781;49.480;8.512;2022-09-25T11:11:03;15.10;99.90
44117;DHT22;29781;49.480;8.512;2022-09-25T11:14:00;15.30;99.90
44117;DHT22;29781;49.480;8.512;2022-09-25T11:16:53;15.30;99.90
44117;DHT22;29781;49.480;8.512;2022-09-25T11:19:27;15.20;99.90
44117;DHT22;29781;49.480;8.512;2022-09-25T11:27:13;15.00;99.90
44117;DHT22;29781;49.480;8.512;2022-09-25T11:32:27;15.00;99.90
44117;DHT22;29781;49.480;8.512;2022-09-25T11:46:44;15.40;99.90
44117;DHT22;29781;49.480;8.512;2022-09-25T11:57:42;15.20;99.90
44117;DHT22;29781;49.480;8.512;2022-09-25T12:08:15;15.40;99.90
44117;DHT22;29781;49.480;8.512;2022-09-25T12:16:17;15.40;99.90
44117;DHT22;29781;49.480;8.512;2022-09-25T12:19:01;15.60;99.90
44117;DHT22;29781;49.480;8.512;2022-09-25T12:24:28;15.60;99.90
44117;DHT22;29781;49.480;8.512;2022-09-25T12:27:14;15.60;99.90
44117;DHT22;29781;49.480;8.512;2022-09-25T12:29:59;15.60;99.90
44117;DHT22;29781;49.480;8.512;2022-09-25T12:33:39;15.70;99.90
44117;DHT22;29781;49.480;8.512;2022-09-25T12:38:19;15.60;99.90
44117;DHT22;29781;49.480;8.512;2022-09-25T12:40:48;15.60;99.90
44117;DHT22;29781;49.480;8.512;2022-09-25T12:51:35;15.50;99.90
44117;DHT22;29781;49.480;8.512;2022-09-25T12:54:12;15.50;99.90
44117;DHT22;29781;49.480;8.512;2022-09-25T12:56:45;15.60;99.90
44117;DHT22;29781;49.480;8.512;2022-09-25T12:59:17;15.60;99.90
44117;DHT22;29781;49.480;8.512;2022-09-25T13:04:35;15.30;99.90
44117;DHT22;29781;49.480;8.512;2022-09-25T13:07:21;15.30;99.90
44117;DHT22;29781;49.480;8.512;2022-09-25T13:09:49;15.30;99.90
44117;DHT22;29781;49.480;8.512;2022-09-25T13:12:34;15.40;99.90
44117;DHT22;29781;49.480;8.512;2022-09-25T13:15:17;15.30;99.90
44117;DHT22;29781;49.480;8.512;2022-09-25T13:17:43;15.30;99.90
44117;DHT22;29781;49.480;8.512;2022-09-25T13:23:09;15.00;99.90
44117;DHT22;29781;49.480;8.512;2022-09-25T13:28:07;14.60;99.90
44117;DHT22;29781;49.480;8.512;2022-09-25T13:30:33;14.50;99.90
44117;DHT22;29781;49.480;8.512;2022-09-25T13:33:02;14.40;99.90
44117;DHT22;29781;49.480;8.512;2022-09-25T13:35:30;14.30;99.90
44117;DHT22;29781;49.480;8.512;2022-09-25T13:38:10;14.40;99.90
44117;DHT22;29781;49.480;8.512;2022-09-25T13:40:39;14.30;99.90
44117;DHT22;29781;49.480;8.512;2022-09-25T13:43:27;14.30;99.90
44117;DHT22;29781;49.480;8.512;2022-09-25T13:48:51;14.20;99.90
44117;DHT22;29781;49.480;8.512;2022-09-25T13:54:23;14.20;99.90
44117;DHT22;29781;49.480;8.512;2022-09-25T13:56:49;14.20;99.90
44117;DHT22;29781;49.480;8.512;2022-09-25T13:59:20;14.40;99.90
44117;DHT22;29781;49.480;8.512;2022-09-25T14:01:55;14.50;99.90
44117;DHT22;29781;49.480;8.512;2022-09-25T14:04:22;14.50;99.90
44117;DHT22;29781;49.480;8.512;2022-09-25T14:07:05;14.30;99.90
44117;DHT22;29781;49.480;8.512;2022-09-25T14:09:33;14.30;99.90
44117;DHT22;29781;49.480;8.512;2022-09-25T14:14:41;14.10;99.90
44117;DHT22;29781;49.480;8.512;2022-09-25T14:17:14;14.10;99.90
44117;DHT22;29781;49.480;8.512;2022-09-25T14:19:44;13.70;99.90
44117;DHT22;29781;49.480;8.512;2022-09-25T14:22:19;13.60;99.90
44117;DHT22;29781;49.480;8.512;2022-09-25T14:24:45;13.40;99.90
44117;DHT22;29781;49.480;8.512;2022-09-25T14:27:21;13.50;99.90
44117;DHT22;29781;49.480;8.512;2022-09-25T14:29:48;13.50;99.90
44117;DHT22;29781;49.480;8.512;2022-09-25T14:38:17;13.60;99.90
44117;DHT22;29781;49.480;8.512;2022-09-25T14:46:20;14.00;99.90
44117;DHT22;29781;49.480;8.512;2022-09-25T14:48:54;14.10;99.90
44117;DHT22;29781;49.480;8.512;2022-09-25T14:51:31;14.00;99.90
44117;DHT22;29781;49.480;8.512;2022-09-25T14:54:03;14.10;99.90
44117;DHT22;29781;49.480;8.512;2022-09-25T14:56:30;14.00;99.90
44117;DHT22;29781;49.480;8.512;2022-09-25T14:59:02;14.00;99.90
44117;DHT22;29781;49.480;8.512;2022-09-25T15:01:31;14.00;99.90
44117;DHT22;29781;49.480;8.512;2022-09-25T15:04:04;13.90;99.90
44117;DHT22;29781;49.480;8.512;2022-09-25T15:06:33;13.90;99.90
44117;DHT22;29781;49.480;8.512;2022-09-25T15:08:59;14.00;99.90
44117;DHT22;29781;49.480;8.512;2022-09-25T15:11:40;14.10;99.90
44117;DHT22;29781;49.480;8.512;2022-09-25T15:14:18;14.00;99.90
44117;DHT22;29781;49.480;8.512;2022-09-25T15:16:45;13.90;99.90
44117;DHT22;29781;49.480;8.512;2022-09-25T15:19:49;13.90;99.90
44117;DHT22;29781;49.480;8.512;2022-09-25T15:22:21;14.10;99.90
44117;DHT22;29781;49.480;8.512;2022-09-25T15:24:57;14.10;99.90
44117;DHT22;29781;49.480;8.512;2022-09-25T15:27:24;14.00;99.90
44117;DHT22;29781;49.480;8.512;2022-09-25T15:29:53;14.00;99.90
44117;DHT22;29781;49.480;8.512;2022-09-25T15:32:25;14.10;99.90
44117;DHT22;29781;49.480;8.512;2022-09-25T15:37:36;14.40;99.90
44117;DHT22;29781;49.480;8.512;2022-09-25T15:42:46;14.50;99.90
44117;DHT22;29781;49.480;8.512;2022-09-25T15:45:38;14.40;99.90
44117;DHT22;29781;49.480;8.512;2022-09-25T15:48:28;14.30;99.90
44117;DHT22;29781;49.480;8.512;2022-09-25T15:50:56;14.10;99.90
44117;DHT22;29781;49.480;8.512;2022-09-25T15:53:33;14.10;99.90
44117;DHT22;29781;49.480;8.512;2022-09-25T15:58:51;14.30;99.90
44117;DHT22;29781;49.480;8.512;2022-09-25T16:01:24;14.30;99.90
44117;DHT22;29781;49.480;8.512;2022-09-25T16:04:17;14.40;99.90
44117;DHT22;29781;49.480;8.512;2022-09-25T16:07:29;14.60;99.90
44117;DHT22;29781;49.480;8.512;2022-09-25T16:09:57;14.40;99.90
44117;DHT22;29781;49.480;8.512;2022-09-25T16:14:54;14.10;99.90
44117;DHT22;29781;49.480;8.512;2022-09-25T16:17:40;14.20;99.90
44117;DHT22;29781;49.480;8.512;2022-09-25T16:22:59;14.40;99.90
44117;DHT22;29781;49.480;8.512;2022-09-25T16:30:47;14.30;99.90
44117;DHT22;29781;49.480;8.512;2022-09-25T16:33:26;14.20;99.90
44117;DHT22;29781;49.480;8.512;2022-09-25T16:35:53;14.20;99.90
44117;DHT22;29781;49.480;8.512;2022-09-25T16:38:31;14.20;99.90
44117;DHT22;29781;49.480;8.512;2022-09-25T16:41:05;14.20;99.90
44117;DHT22;29781;49.480;8.512;2022-09-25T16:43:31;14.20;99.90
44117;DHT22;29781;49.480;8.512;2022-09-25T16:46:01;14.20;99.90
44117;DHT22;29781;49.480;8.512;2022-09-25T16:48:34;14.20;99.90
44117;DHT22;29781;49.480;8.512;2022-09-25T16:51:01;14.20;99.90
44117;DHT22;29781;49.480;8.512;2022-09-25T16:53:27;14.20;99.90
44117;DHT22;29781;49.480;8.512;2022-09-25T16:55:53;14.20;99.90
44117;DHT22;29781;49.480;8.512;2022-09-25T16:58:20;14.20;99.90
44117;DHT22;29781;49.480;8.512;2022-09-25T17:00:47;14.30;99.90
44117;DHT22;29781;49.480;8.512;2022-09-25T17:03:13;14.20;99.90
44117;DHT22;29781;49.480;8.512;2022-09-25T17:05:39;14.10;99.90
44117;DHT22;29781;49.480;8.512;2022-09-25T17:08:19;14.10;99.90
44117;DHT22;29781;49.480;8.512;2022-09-25T17:10:47;14.10;99.90
44117;DHT22;29781;49.480;8.512;2022-09-25T17:13:16;14.00;99.90
44117;DHT22;29781;49.480;8.512;2022-09-25T17:15:42;14.00;99.90
44117;DHT22;29781;49.480;8.512;2022-09-25T17:18:26;13.90;99.90
44117;DHT22;29781;49.480;8.512;2022-09-25T17:20:52;13.90;99.90
44117;DHT22;29781;49.480;8.512;2022-09-25T17:23:20;13.90;99.90
44117;DHT22;29781;49.480;8.512;2022-09-25T17:25:49;14.00;99.90
44117;DHT22;29781;49.480;8.512;2022-09-25T17:28:16;14.10;99.90
44117;DHT22;29781;49.480;8.512;2022-09-25T17:30:42;14.10;99.90
44117;DHT22;29781;49.480;8.512;2022-09-25T17:33:14;14.20;99.90
44117;DHT22;29781;49.480;8.512;2022-09-25T17:38:09;14.30;99.90
44117;DHT22;29781;49.480;8.512;2022-09-25T17:40:37;14.30;99.90
44117;DHT22;29781;49.480;8.512;2022-09-25T17:43:03;14.20;99.90
44117;DHT22;29781;49.480;8.512;2022-09-25T17:48:17;14.10;99.90
44117;DHT22;29781;49.480;8.512;2022-09-25T17:50:54;14.00;99.90
44117;DHT22;29781;49.480;8.512;2022-09-25T17:53:26;13.90;99.90
44117;DHT22;29781;49.480;8.512;2022-09-25T17:55:53;14.00;99.90
44117;DHT22;29781;49.480;8.512;2022-09-25T17:58:20;14.10;99.90
44117;DHT22;29781;49.480;8.512;2022-09-25T18:00:46;14.10;99.90
44117;DHT22;29781;49.480;8.512;2022-09-25T18:03:14;14.30;99.90
44117;DHT22;29781;49.480;8.512;2022-09-25T18:05:40;14.30;99.90
44117;DHT22;29781;49.480;8.512;2022-09-25T18:08:07;14.30;99.90
44117;DHT22;29781;49.480;8.512;2022-09-25T18:10:32;14.30;99.90
44117;DHT22;29781;49.480;8.512;2022-09-25T18:12:59;14.40;99.90
44117;DHT22;29781;49.480;8.512;2022-09-25T18:15:26;14.40;99.90
44117;DHT22;29781;49.480;8.512;2022-09-25T18:17:52;14.30;99.90
44117;DHT22;29781;49.480;8.512;2022-09-25T18:20:18;14.30;99.90
44117;DHT22;29781;49.480;8.512;2022-09-25T18:23:03;14.20;99.90
44117;DHT22;29781;49.480;8.512;2022-09-25T18:25:30;14.10;99.90
44117;DHT22;29781;49.480;8.512;2022-09-25T18:27:56;13.90;99.90
44117;DHT22;29781;49.480;8.512;2022-09-25T18:30:22;13.80;99.90
44117;DHT22;29781;49.480;8.512;2022-09-25T18:32:49;13.80;99.90
44117;DHT22;29781;49.480;8.512;2022-09-25T18:35:16;13.80;99.90
44117;DHT22;29781;49.480;8.512;2022-09-25T18:37:43;14.00;99.90
44117;DHT22;29781;49.480;8.512;2022-09-25T18:40:10;14.10;99.90
44117;DHT22;29781;49.480;8.512;2022-09-25T18:42:36;14.20;99.90
44117;DHT22;29781;49.480;8.512;2022-09-25T18:45:03;14.30;99.90